createdAt,value
2019-03-23T00:00:40.585Z,416.90
2019-03-23T00:03:12.932Z,414.20
2019-03-23T00:05:45.292Z,422.30
2019-03-23T00:08:17.668Z,465.10
2019-03-23T00:10:49.928Z,455.37
2019-03-23T00:13:22.227Z,450.30
2019-03-23T00:15:54.560Z,433.13
2019-03-23T00:18:26.839Z,446.23
2019-03-23T00:20:59.089Z,468.13
2019-03-23T00:23:31.361Z,449.13
2019-03-23T00:26:03.596Z,470.73
2019-03-23T00:28:35.847Z,461.53
2019-03-23T00:31:08.175Z,472.17
2019-03-23T00:33:40.515Z,485.70
2019-03-23T00:36:12.766Z,507.87
2019-03-23T00:38:45.033Z,504.33
2019-03-23T00:41:17.386Z,503.77
2019-03-23T00:43:49.728Z,489.67
2019-03-23T00:46:21.985Z,497.77
2019-03-23T00:48:54.340Z,477.10
2019-03-23T00:51:26.608Z,470.50
2019-03-23T00:53:58.868Z,480.77
2019-03-23T00:56:31.237Z,460.80
2019-03-23T00:59:03.713Z,492.73
2019-03-23T01:01:35.959Z,484.53
2019-03-23T01:04:08.223Z,484.60
2019-03-23T01:06:40.470Z,502.67
2019-03-23T01:09:12.799Z,491.83
2019-03-23T01:11:45.156Z,497.83
2019-03-23T01:14:17.409Z,502.90
2019-03-23T01:16:49.643Z,504.03
2019-03-23T01:19:21.897Z,527.53
2019-03-23T01:21:54.135Z,494.27
2019-03-23T01:24:26.402Z,501.23
2019-03-23T01:26:58.673Z,513.70
2019-03-23T01:29:31.016Z,452.23
2019-03-23T01:32:03.379Z,475.83
2019-03-23T01:34:35.664Z,509.20
2019-03-23T01:37:07.916Z,547.70
2019-03-23T01:39:40.165Z,522.13
2019-03-23T01:42:12.408Z,529.07
2019-03-23T01:44:44.665Z,549.27
2019-03-23T01:47:16.923Z,507.30
2019-03-23T01:49:49.208Z,539.07
2019-03-23T01:52:21.556Z,526.57
2019-03-23T01:54:53.806Z,538.87
2019-03-23T01:57:26.091Z,502.57
2019-03-23T01:59:58.501Z,520.93
2019-03-23T02:02:30.752Z,543.97
2019-03-23T02:05:03.730Z,515.77
2019-03-23T02:07:36.041Z,515.13
2019-03-23T02:10:08.993Z,509.60
2019-03-23T02:12:41.242Z,491.33
2019-03-23T02:15:13.841Z,509.87
2019-03-23T02:17:46.090Z,541.80
2019-03-23T02:20:18.482Z,509.00
2019-03-23T02:22:50.724Z,468.33
2019-03-23T02:25:23.113Z,492.93
2019-03-23T02:27:55.340Z,473.70
2019-03-23T02:30:27.592Z,503.93
2019-03-23T02:32:59.853Z,456.33
2019-03-23T02:35:32.150Z,469.43
2019-03-23T02:38:04.481Z,481.13
2019-03-23T02:40:36.818Z,489.57
2019-03-23T02:43:09.082Z,477.90
2019-03-23T02:45:41.466Z,489.17
2019-03-23T02:48:13.729Z,477.17
2019-03-23T02:50:46.100Z,487.60
2019-03-23T02:53:18.341Z,479.77
2019-03-23T02:55:50.601Z,445.07
2019-03-23T02:58:22.879Z,493.37
2019-03-23T03:00:55.240Z,458.40
2019-03-23T03:03:27.582Z,457.37
2019-03-23T03:05:59.856Z,457.87
2019-03-23T03:08:32.135Z,453.67
2019-03-23T03:11:04.616Z,463.83
2019-03-23T03:13:36.951Z,455.53
2019-03-23T03:16:09.217Z,455.43
2019-03-23T03:18:41.586Z,486.47
2019-03-23T03:21:13.860Z,480.53
2019-03-23T03:23:46.092Z,455.20
2019-03-23T03:26:18.353Z,473.97
2019-03-23T03:28:50.724Z,456.13
2019-03-23T03:31:23.148Z,456.50
2019-03-23T03:33:55.857Z,490.60
2019-03-23T03:36:30.047Z,467.57
2019-03-23T03:39:03.857Z,467.43
2019-03-23T03:41:36.141Z,450.20
2019-03-23T03:44:08.411Z,478.40
2019-03-23T03:46:40.713Z,459.10
2019-03-23T03:49:13.208Z,475.63
2019-03-23T03:51:46.168Z,463.50
2019-03-23T03:54:18.530Z,477.80
2019-03-23T03:56:50.817Z,427.90
2019-03-23T03:59:23.445Z,478.07
2019-03-23T04:01:55.846Z,465.37
2019-03-23T04:04:28.161Z,453.03
2019-03-23T04:07:00.454Z,486.97
2019-03-23T04:09:32.814Z,469.00
2019-03-23T04:12:05.199Z,464.80
2019-03-23T04:14:37.573Z,474.27
2019-03-23T04:17:09.845Z,473.27
2019-03-23T04:19:42.094Z,469.93
2019-03-23T04:22:14.359Z,498.00
2019-03-23T04:24:46.616Z,439.67
2019-03-23T04:27:18.999Z,438.93
2019-03-23T04:29:51.325Z,493.57
2019-03-23T04:32:23.674Z,452.67
2019-03-23T04:34:55.961Z,483.13
2019-03-23T04:37:28.315Z,422.67
2019-03-23T04:40:00.606Z,484.37
2019-03-23T04:42:32.958Z,457.80
2019-03-23T04:45:06.036Z,400.20
2019-03-23T04:47:38.292Z,403.83
2019-03-23T04:50:11.746Z,432.27
2019-03-23T04:52:43.997Z,376.23
2019-03-23T04:55:16.248Z,441.23
2019-03-23T04:57:48.597Z,475.07
2019-03-23T05:00:20.847Z,402.57
2019-03-23T05:02:53.113Z,407.43
2019-03-23T05:05:25.350Z,427.37
2019-03-23T05:07:57.588Z,402.30
2019-03-23T05:10:29.846Z,388.67
2019-03-23T05:13:02.216Z,373.33
2019-03-23T05:15:34.551Z,419.23
2019-03-23T05:18:06.820Z,369.87
2019-03-23T05:20:39.048Z,368.23
2019-03-23T05:23:11.306Z,369.83
2019-03-23T05:25:43.549Z,389.67
2019-03-23T05:28:15.808Z,378.00
2019-03-23T05:30:48.075Z,330.20
2019-03-23T05:33:20.331Z,344.27
2019-03-23T05:35:52.589Z,375.77
2019-03-23T05:38:24.844Z,359.83
2019-03-23T05:40:57.176Z,388.17
2019-03-23T05:43:29.437Z,391.10
2019-03-23T05:46:01.784Z,333.17
2019-03-23T05:48:34.063Z,329.77
2019-03-23T05:51:06.302Z,296.43
2019-03-23T05:53:38.555Z,267.97
2019-03-23T05:56:10.789Z,256.53
2019-03-23T05:58:43.061Z,263.37
2019-03-23T06:01:15.303Z,268.37
2019-03-23T06:03:47.561Z,252.10
2019-03-23T06:06:19.916Z,189.17
2019-03-23T06:08:55.191Z,165.57
2019-03-23T06:11:26.393Z,159.80
2019-03-23T06:13:58.758Z,115.50
2019-03-23T06:16:31.008Z,121.67
2019-03-23T06:19:03.417Z,100.37
2019-03-23T06:21:35.748Z,106.07
2019-03-23T06:24:08.113Z,102.47
2019-03-23T06:26:40.367Z,107.30
2019-03-23T06:29:12.636Z,97.27
2019-03-23T06:31:44.877Z,85.83
2019-03-23T06:34:17.136Z,94.40
2019-03-23T06:36:49.402Z,85.53
2019-03-23T06:39:21.765Z,83.50
2019-03-23T06:41:54.009Z,62.53
2019-03-23T06:44:26.385Z,65.83
2019-03-23T06:46:58.744Z,59.30
2019-03-23T06:49:31.003Z,59.60
2019-03-23T06:52:03.396Z,55.07
2019-03-23T06:54:35.680Z,55.63
2019-03-23T06:57:08.039Z,53.27
2019-03-23T06:59:40.305Z,59.23
2019-03-23T07:02:12.619Z,56.03
2019-03-23T07:04:44.948Z,53.00
2019-03-23T07:07:17.305Z,56.17
2019-03-23T07:09:49.556Z,58.17
2019-03-23T07:12:21.823Z,60.90
2019-03-23T07:14:54.091Z,61.83
2019-03-23T07:17:26.347Z,54.77
2019-03-23T07:19:58.612Z,51.17
2019-03-23T07:22:30.849Z,53.27
2019-03-23T07:25:04.216Z,56.60
2019-03-23T07:27:36.511Z,50.97
2019-03-23T07:30:11.232Z,48.63
2019-03-23T07:32:43.576Z,57.20
2019-03-23T07:35:16.105Z,48.80
2019-03-23T07:37:48.475Z,53.20
2019-03-23T07:40:20.774Z,49.43
2019-03-23T07:42:53.025Z,50.70
2019-03-23T07:45:25.402Z,50.53
2019-03-23T07:47:57.766Z,45.23
2019-03-23T07:50:30.129Z,48.60
2019-03-23T07:53:02.460Z,49.73
2019-03-23T07:55:34.715Z,52.15
2019-03-23T07:58:06.984Z,44.73
2019-03-23T08:00:40.982Z,49.03
2019-03-23T08:03:13.509Z,43.85
2019-03-23T08:05:45.888Z,44.58
2019-03-23T08:08:18.199Z,45.90
2019-03-23T08:10:50.508Z,56.15
2019-03-23T08:13:22.905Z,51.50
2019-03-23T08:15:55.245Z,56.88
2019-03-23T08:18:27.529Z,51.88
2019-03-23T08:20:59.888Z,61.10
2019-03-23T08:23:32.188Z,58.13
2019-03-23T08:26:04.463Z,54.42
2019-03-23T08:28:36.765Z,57.00
2019-03-23T08:31:09.336Z,56.88
2019-03-23T08:33:41.617Z,53.90
2019-03-23T08:36:13.884Z,55.15
2019-03-23T08:38:46.165Z,53.30
2019-03-23T08:41:18.527Z,54.27
2019-03-23T08:43:50.764Z,55.55
2019-03-23T08:46:23.029Z,51.37
2019-03-23T08:48:55.299Z,57.53
2019-03-23T08:51:27.568Z,53.55
2019-03-23T08:53:59.908Z,58.20
2019-03-23T08:56:32.220Z,53.40
2019-03-23T08:59:04.570Z,53.42
2019-03-23T09:01:36.871Z,49.93
2019-03-23T09:04:09.237Z,55.10
2019-03-23T09:06:41.520Z,53.65
2019-03-23T09:09:13.833Z,52.27
2019-03-23T09:11:46.109Z,48.25
2019-03-23T09:14:18.359Z,56.48
2019-03-23T09:16:50.627Z,56.68
2019-03-23T09:19:22.985Z,48.10
2019-03-23T09:21:55.404Z,56.95
2019-03-23T09:24:27.751Z,47.73
2019-03-23T09:27:02.801Z,49.83
2019-03-23T09:29:35.144Z,52.58
2019-03-23T09:32:07.415Z,53.28
2019-03-23T09:34:39.807Z,49.35
2019-03-23T09:37:12.089Z,49.38
2019-03-23T09:39:44.469Z,48.52
2019-03-23T09:42:16.844Z,54.58
2019-03-23T09:44:49.142Z,45.23
2019-03-23T09:47:21.501Z,47.58
2019-03-23T09:49:53.768Z,49.65
2019-03-23T09:52:26.153Z,44.58
2019-03-23T09:54:58.559Z,46.75
2019-03-23T09:57:30.923Z,44.83
2019-03-23T10:00:04.520Z,51.80
2019-03-23T10:02:36.873Z,50.45
2019-03-23T10:05:09.227Z,48.50
2019-03-23T10:07:41.813Z,45.67
2019-03-23T10:10:21.635Z,47.67
2019-03-23T10:12:48.290Z,54.70
2019-03-23T10:15:23.035Z,50.08
2019-03-23T10:17:55.284Z,53.20
2019-03-23T10:20:27.527Z,53.33
2019-03-23T10:22:59.825Z,53.98
2019-03-23T10:25:32.184Z,51.23
2019-03-23T10:28:04.682Z,45.20
2019-03-23T10:30:37.019Z,54.58
2019-03-23T10:33:09.291Z,54.33
2019-03-23T10:35:41.685Z,55.63
2019-03-23T10:38:13.928Z,55.12
2019-03-23T10:40:46.188Z,55.48
2019-03-23T10:43:18.503Z,53.60
2019-03-23T10:45:50.949Z,53.10
2019-03-23T10:48:23.311Z,51.50
2019-03-23T10:50:55.565Z,53.65
2019-03-23T10:53:30.764Z,60.85
2019-03-23T10:56:03.048Z,57.75
2019-03-23T10:58:35.308Z,56.58
2019-03-23T11:01:07.546Z,55.08
2019-03-23T11:03:39.801Z,55.73
2019-03-23T11:06:12.040Z,61.55
2019-03-23T11:08:44.335Z,60.40
2019-03-23T11:11:16.665Z,60.90
2019-03-23T11:13:49.050Z,61.23
2019-03-23T11:16:21.296Z,62.98
2019-03-23T11:18:53.657Z,63.00
2019-03-23T11:21:25.924Z,65.55
2019-03-23T11:23:58.256Z,69.47
2019-03-23T11:26:30.627Z,64.95
2019-03-23T11:29:02.918Z,72.05
2019-03-23T11:31:35.264Z,76.85
2019-03-23T11:34:17.251Z,75.72
2019-03-23T11:36:41.719Z,70.87
2019-03-23T11:39:14.004Z,75.65
2019-03-23T11:41:46.253Z,79.90
2019-03-23T11:44:18.511Z,82.22
2019-03-23T11:46:50.760Z,76.60
2019-03-23T11:49:23.064Z,69.87
2019-03-23T11:51:55.416Z,72.10
2019-03-23T11:54:27.785Z,74.47
2019-03-23T11:57:00.267Z,82.88
2019-03-23T11:59:32.559Z,78.40
2019-03-23T12:02:05.009Z,71.77
2019-03-23T12:04:37.291Z,70.05
2019-03-23T12:07:09.557Z,71.47
2019-03-23T12:09:41.821Z,77.20
2019-03-23T12:12:14.781Z,74.95
2019-03-23T12:14:49.279Z,80.42
2019-03-23T12:17:21.528Z,81.00
2019-03-23T12:19:53.788Z,72.78
2019-03-23T12:22:26.117Z,82.95
2019-03-23T12:24:58.385Z,81.87
2019-03-23T12:27:30.681Z,71.73
2019-03-23T12:30:07.538Z,69.57
2019-03-23T12:32:38.154Z,78.97
2019-03-23T12:35:10.752Z,81.43
2019-03-23T12:37:43.089Z,69.43
2019-03-23T12:40:15.470Z,69.07
2019-03-23T12:42:47.814Z,63.83
2019-03-23T12:45:20.167Z,65.63
2019-03-23T12:47:52.431Z,67.97
2019-03-23T12:50:24.684Z,59.30
2019-03-23T12:52:57.552Z,61.33
2019-03-23T12:55:29.923Z,59.97
2019-03-23T12:58:02.177Z,62.53
2019-03-23T13:00:34.540Z,57.87
2019-03-23T13:03:06.864Z,52.20
2019-03-23T13:05:39.120Z,56.63
2019-03-23T13:08:11.434Z,59.53
2019-03-23T13:10:43.754Z,54.97
2019-03-23T13:13:16.096Z,57.50
2019-03-23T13:15:48.363Z,56.17
2019-03-23T13:18:27.164Z,59.63
2019-03-23T13:20:55.168Z,60.23
2019-03-23T13:23:27.518Z,64.03
2019-03-23T13:25:59.787Z,63.20
2019-03-23T13:28:32.019Z,66.03
2019-03-23T13:31:04.269Z,64.90
2019-03-23T13:33:36.512Z,68.43
2019-03-23T13:36:08.782Z,68.60
2019-03-23T13:38:42.224Z,68.27
2019-03-23T13:41:14.564Z,68.63
2019-03-23T13:43:46.818Z,82.60
2019-03-23T13:46:19.112Z,83.40
2019-03-23T13:48:51.348Z,77.10
2019-03-23T13:51:23.616Z,75.20
2019-03-23T13:53:55.957Z,80.70
2019-03-23T13:56:28.225Z,81.70
2019-03-23T13:59:00.465Z,78.87
2019-03-23T14:01:32.820Z,76.33
2019-03-23T14:04:05.077Z,73.17
2019-03-23T14:06:37.413Z,76.03
2019-03-23T14:09:09.736Z,83.37
2019-03-23T14:11:41.984Z,73.83
2019-03-23T14:14:14.333Z,86.00
2019-03-23T14:16:46.598Z,85.57
2019-03-23T14:19:18.943Z,78.80
2019-03-23T14:21:51.916Z,82.53
2019-03-23T14:24:24.758Z,84.20
2019-03-23T14:26:57.677Z,74.37
2019-03-23T14:29:30.851Z,79.67
2019-03-23T14:32:03.872Z,79.10
2019-03-23T14:34:36.714Z,72.97
2019-03-23T14:37:09.634Z,82.40
2019-03-23T14:39:42.487Z,81.30
2019-03-23T14:42:15.506Z,75.33
2019-03-23T14:44:48.271Z,74.67
2019-03-23T14:47:21.196Z,76.77
2019-03-23T14:49:54.157Z,103.53
2019-03-23T14:52:26.999Z,89.73
2019-03-23T14:54:59.639Z,67.67
2019-03-23T14:57:32.287Z,79.60
2019-03-23T15:00:06.320Z,71.70
2019-03-23T15:02:39.226Z,74.30
2019-03-23T15:05:12.020Z,75.03
2019-03-23T15:07:44.884Z,64.73
2019-03-23T15:10:17.729Z,72.90
2019-03-23T15:12:50.584Z,74.13
2019-03-23T15:15:23.515Z,69.60
2019-03-23T15:17:56.129Z,61.67
2019-03-23T15:20:28.658Z,66.67
2019-03-23T15:23:01.507Z,59.17
2019-03-23T15:25:34.655Z,64.43
2019-03-23T15:28:07.378Z,62.00
2019-03-23T15:30:40.156Z,63.33
2019-03-23T15:33:12.885Z,62.93
2019-03-23T15:35:45.914Z,59.17
2019-03-23T15:38:18.874Z,56.17
2019-03-23T15:40:51.758Z,64.20
2019-03-23T15:43:24.681Z,56.30
2019-03-23T15:45:57.633Z,58.37
2019-03-23T15:48:30.546Z,59.90
2019-03-23T15:51:04.242Z,63.87
2019-03-23T15:53:37.300Z,58.67
2019-03-23T15:56:10.220Z,57.80
2019-03-23T15:58:42.689Z,50.90
2019-03-23T16:01:15.606Z,49.90
2019-03-23T16:03:48.605Z,49.37
2019-03-23T16:06:21.030Z,44.30
2019-03-23T16:08:54.159Z,49.37
2019-03-23T16:11:26.495Z,52.17
2019-03-23T16:13:58.761Z,51.67
2019-03-23T16:16:31.002Z,58.43
2019-03-23T16:19:03.371Z,50.23
2019-03-23T16:21:35.642Z,45.60
2019-03-23T16:24:07.908Z,42.83
2019-03-23T16:26:40.159Z,54.53
2019-03-23T16:29:12.421Z,60.07
2019-03-23T16:31:44.672Z,52.23
2019-03-23T16:34:17.016Z,51.10
2019-03-23T16:36:49.282Z,50.17
2019-03-23T16:39:21.679Z,52.73
2019-03-23T16:41:54.044Z,47.97
2019-03-23T16:44:26.312Z,53.57
2019-03-23T16:46:58.559Z,54.27
2019-03-23T16:49:30.833Z,58.13
2019-03-23T16:52:03.584Z,50.63
2019-03-23T16:54:36.646Z,55.70
2019-03-23T16:57:09.755Z,48.33
2019-03-23T16:59:42.866Z,46.27
2019-03-23T17:02:15.824Z,51.10
2019-03-23T17:04:48.825Z,45.10
2019-03-23T17:07:21.680Z,44.93
2019-03-23T17:09:54.023Z,44.23
2019-03-23T17:12:26.360Z,42.80
2019-03-23T17:14:58.614Z,47.53
2019-03-23T17:17:30.956Z,46.50
2019-03-23T17:20:03.928Z,44.57
2019-03-23T17:22:36.282Z,54.27
2019-03-23T17:25:08.760Z,58.73
2019-03-23T17:27:41.100Z,52.80
2019-03-23T17:30:13.523Z,44.43
2019-03-23T17:32:45.858Z,48.30
2019-03-23T17:35:18.108Z,44.47
2019-03-23T17:37:50.363Z,48.03
2019-03-23T17:40:22.724Z,44.97
2019-03-23T17:43:05.373Z,49.73
2019-03-23T17:45:29.278Z,42.07
2019-03-23T17:48:01.625Z,43.13
2019-03-23T17:50:33.901Z,47.70
2019-03-23T17:53:06.166Z,50.07
2019-03-23T17:55:38.412Z,51.03
2019-03-23T17:58:10.651Z,52.70
2019-03-23T18:00:43.041Z,48.63
2019-03-23T18:03:15.276Z,56.00
2019-03-23T18:05:47.551Z,54.23
2019-03-23T18:08:20.006Z,51.60
2019-03-23T18:10:52.386Z,58.90
2019-03-23T18:13:24.733Z,63.70
2019-03-23T18:15:57.003Z,69.90
2019-03-23T18:18:29.263Z,75.53
2019-03-23T18:21:01.532Z,61.30
2019-03-23T18:23:34.088Z,59.23
2019-03-23T18:26:06.456Z,60.23
2019-03-23T18:28:38.697Z,118.77
2019-03-23T18:31:11.209Z,73.30
2019-03-23T18:33:43.461Z,75.30
2019-03-23T18:36:15.721Z,71.97
2019-03-23T18:38:47.982Z,56.47
2019-03-23T18:41:20.386Z,51.93
2019-03-23T18:43:52.928Z,66.43
2019-03-23T18:46:25.211Z,71.60
2019-03-23T18:48:57.543Z,82.83
2019-03-23T18:51:30.019Z,81.17
2019-03-23T18:54:02.428Z,96.43
2019-03-23T18:56:34.684Z,70.27
2019-03-23T18:59:07.057Z,86.60
2019-03-23T19:01:39.361Z,95.00
2019-03-23T19:04:11.622Z,77.23
2019-03-23T19:06:43.882Z,80.30
2019-03-23T19:09:16.133Z,75.97
2019-03-23T19:11:48.402Z,94.37
2019-03-23T19:14:20.671Z,86.97
2019-03-23T19:16:52.950Z,88.17
2019-03-23T19:19:25.305Z,88.57
2019-03-23T19:21:57.586Z,80.83
2019-03-23T19:24:29.857Z,82.20
2019-03-23T19:27:02.236Z,81.23
2019-03-23T19:29:34.504Z,83.10
2019-03-23T19:32:06.877Z,82.10
2019-03-23T19:34:39.163Z,85.03
2019-03-23T19:37:11.479Z,87.07
2019-03-23T19:39:43.836Z,132.00
2019-03-23T19:42:16.157Z,124.23
2019-03-23T19:44:48.537Z,116.50
2019-03-23T19:47:20.941Z,108.17
2019-03-23T19:49:53.314Z,106.80
2019-03-23T19:52:25.675Z,89.53
2019-03-23T19:54:58.054Z,98.20
2019-03-23T19:57:30.473Z,84.97
2019-03-23T20:00:04.107Z,99.60
2019-03-23T20:02:36.575Z,91.40
2019-03-23T20:05:09.111Z,91.63
2019-03-23T20:07:41.413Z,96.87
2019-03-23T20:10:14.612Z,91.07
2019-03-23T20:12:46.905Z,98.57
2019-03-23T20:15:19.252Z,101.97
2019-03-23T20:17:51.578Z,98.00
2019-03-23T20:20:24.051Z,92.53
2019-03-23T20:22:56.473Z,97.80
2019-03-23T20:25:28.730Z,106.30
2019-03-23T20:28:01.243Z,109.10
2019-03-23T20:30:33.633Z,110.93
2019-03-23T20:33:06.036Z,110.23
2019-03-23T20:35:38.473Z,97.73
2019-03-23T20:38:10.991Z,104.20
2019-03-23T20:40:43.324Z,101.77
2019-03-23T20:43:15.627Z,110.83
2019-03-23T20:45:48.000Z,103.93
2019-03-23T20:48:20.612Z,102.60
2019-03-23T20:50:52.986Z,106.57
2019-03-23T20:53:25.490Z,111.40
2019-03-23T20:55:57.812Z,110.47
2019-03-23T20:58:30.131Z,119.30
2019-03-23T21:01:02.687Z,120.30
2019-03-23T21:03:35.135Z,118.73
2019-03-23T21:06:07.462Z,118.13
2019-03-23T21:08:39.853Z,108.03
2019-03-23T21:11:12.346Z,115.23
2019-03-23T21:13:44.654Z,115.10
2019-03-23T21:16:16.953Z,120.10
2019-03-23T21:18:49.365Z,119.63
2019-03-23T21:21:21.708Z,119.57
2019-03-23T21:23:53.985Z,124.40
2019-03-23T21:26:26.274Z,116.63
2019-03-23T21:28:58.682Z,115.73
2019-03-23T21:31:30.999Z,112.80
2019-03-23T21:34:03.536Z,114.53
2019-03-23T21:36:35.813Z,116.97
2019-03-23T21:39:08.136Z,122.03
2019-03-23T21:41:40.387Z,144.80
2019-03-23T21:44:12.710Z,125.10
2019-03-23T21:46:45.040Z,118.07
2019-03-23T21:49:17.330Z,125.03
2019-03-23T21:51:49.600Z,107.37
2019-03-23T21:54:21.962Z,115.83
2019-03-23T21:56:54.193Z,116.43
2019-03-23T21:59:26.468Z,132.60
2019-03-23T22:01:58.780Z,111.37
2019-03-23T22:04:31.079Z,110.77
2019-03-23T22:12:30.691Z,113.43
2019-03-23T22:15:04.378Z,112.03
2019-03-23T22:17:36.721Z,124.00
2019-03-23T22:20:09.228Z,138.00
2019-03-23T22:22:41.540Z,129.63
2019-03-23T22:25:13.910Z,137.20
2019-03-23T22:27:46.194Z,145.43
2019-03-23T22:30:18.593Z,146.47
2019-03-23T22:32:51.149Z,148.67
2019-03-23T22:35:23.423Z,138.70
2019-03-23T22:37:55.699Z,142.57
2019-03-23T22:40:28.308Z,156.47
2019-03-23T22:43:00.848Z,149.00
2019-03-23T22:45:33.117Z,142.27
2019-03-23T22:48:05.385Z,151.70
2019-03-23T22:50:37.661Z,156.47
2019-03-23T22:53:09.903Z,154.37
2019-03-23T22:55:42.200Z,166.70
2019-03-23T22:58:14.456Z,156.03
2019-03-23T23:00:47.823Z,170.47
2019-03-23T23:03:20.152Z,175.80
2019-03-23T23:05:52.421Z,168.70
2019-03-23T23:08:24.795Z,167.17
2019-03-23T23:10:57.141Z,174.07
2019-03-23T23:13:29.379Z,162.87
2019-03-23T23:16:01.652Z,174.20
2019-03-23T23:18:33.990Z,176.50
2019-03-23T23:21:06.248Z,154.57
2019-03-23T23:23:38.484Z,173.97
2019-03-23T23:26:10.729Z,180.87
2019-03-23T23:28:42.972Z,170.00
2019-03-23T23:31:15.231Z,179.37
2019-03-23T23:33:47.464Z,182.20
2019-03-23T23:36:19.715Z,196.33
2019-03-23T23:38:52.625Z,165.30
2019-03-23T23:41:25.113Z,200.83
2019-03-23T23:43:57.343Z,196.60
2019-03-23T23:46:29.623Z,188.00
2019-03-23T23:49:01.852Z,202.97
2019-03-23T23:51:34.246Z,189.90
2019-03-23T23:54:06.493Z,225.30
2019-03-23T23:56:38.904Z,215.77
2019-03-23T23:59:11.364Z,212.87
